sensor_id;sensor_type;location;lat;lon;timestamp;pressure;altitude;pressure_sealevel;temperature;humidity
69624;BME280;56843;52.020;5.670;2023-03-26T00:00:52;100507.00;;;11.27;66.26
69624;BME280;56843;52.020;5.670;2023-03-26T00:02:25;100503.56;;;11.26;66.21
69624;BME280;56843;52.020;5.670;2023-03-26T00:03:58;100505.44;;;11.26;66.56
69624;BME280;56843;52.020;5.670;2023-03-26T00:05:29;100500.91;;;11.26;66.67
69624;BME280;56843;52.020;5.670;2023-03-26T00:07:01;100503.88;;;11.25;66.43
69624;BME280;56843;52.020;5.670;2023-03-26T00:08:33;100503.88;;;11.25;66.35
69624;BME280;56843;52.020;5.670;2023-03-26T00:10:05;100499.31;;;11.25;66.60
69624;BME280;56843;52.020;5.670;2023-03-26T00:11:36;100505.44;;;11.26;66.35
69624;BME280;56843;52.020;5.670;2023-03-26T00:13:07;100503.88;;;11.25;66.39
69624;BME280;56843;52.020;5.670;2023-03-26T00:14:37;100503.88;;;11.25;66.03
69624;BME280;56843;52.020;5.670;2023-03-26T00:16:10;100501.22;;;11.25;66.47
69624;BME280;56843;52.020;5.670;2023-03-26T00:17:42;100506.25;;;11.26;66.76
69624;BME280;56843;52.020;5.670;2023-03-26T00:19:15;100496.66;;;11.25;66.72
69624;BME280;56843;52.020;5.670;2023-03-26T00:20:46;100501.56;;;11.23;66.26
69624;BME280;56843;52.020;5.670;2023-03-26T00:22:17;100492.00;;;11.22;66.73
69624;BME280;56843;52.020;5.670;2023-03-26T00:23:47;100493.88;;;11.22;66.74
69624;BME280;56843;52.020;5.670;2023-03-26T00:25:18;100491.19;;;11.22;66.54
69624;BME280;56843;52.020;5.670;2023-03-26T00:26:49;100494.97;;;11.21;66.75
69624;BME280;56843;52.020;5.670;2023-03-26T00:28:23;100497.66;;;11.21;66.67
69624;BME280;56843;52.020;5.670;2023-03-26T00:29:55;100496.88;;;11.20;66.87
69624;BME280;56843;52.020;5.670;2023-03-26T00:31:26;100484.28;;;11.21;66.57
69624;BME280;56843;52.020;5.670;2023-03-26T00:32:56;100491.50;;;11.20;66.72
69624;BME280;56843;52.020;5.670;2023-03-26T00:34:27;100481.63;;;11.21;66.93
69624;BME280;56843;52.020;5.670;2023-03-26T00:35:59;100486.97;;;11.21;66.81
69624;BME280;56843;52.020;5.670;2023-03-26T00:37:34;100479.28;;;11.19;66.63
69624;BME280;56843;52.020;5.670;2023-03-26T00:39:04;100480.06;;;11.20;66.75
69624;BME280;56843;52.020;5.670;2023-03-26T00:40:35;100479.28;;;11.19;66.84
69624;BME280;56843;52.020;5.670;2023-03-26T00:42:06;100474.72;;;11.20;66.80
69624;BME280;56843;52.020;5.670;2023-03-26T00:43:37;100467.47;;;11.20;67.13
69624;BME280;56843;52.020;5.670;2023-03-26T00:45:08;100472.06;;;11.20;67.31
69624;BME280;56843;52.020;5.670;2023-03-26T00:46:39;100472.06;;;11.20;66.90
69624;BME280;56843;52.020;5.670;2023-03-26T00:48:09;100468.59;;;11.19;67.26
69624;BME280;56843;52.020;5.670;2023-03-26T00:49:40;100465.13;;;11.19;67.10
69624;BME280;56843;52.020;5.670;2023-03-26T00:51:12;100460.91;;;11.18;67.17
69624;BME280;56843;52.020;5.670;2023-03-26T00:52:44;100458.56;;;11.16;67.37
69624;BME280;56843;52.020;5.670;2023-03-26T00:54:15;100459.34;;;11.17;67.42
69624;BME280;56843;52.020;5.670;2023-03-26T00:55:46;100463.91;;;11.16;67.58
69624;BME280;56843;52.020;5.670;2023-03-26T00:57:18;100459.34;;;11.17;67.12
69624;BME280;56843;52.020;5.670;2023-03-26T00:58:52;100456.22;;;11.15;67.26
69624;BME280;56843;52.020;5.670;2023-03-26T01:02:29;100453.47;;;11.11;67.75
69624;BME280;56843;52.020;5.670;2023-03-26T01:04:32;100453.22;;;11.16;67.68
69624;BME280;56843;52.020;5.670;2023-03-26T01:06:05;100454.22;;;11.12;67.65
69624;BME280;56843;52.020;5.670;2023-03-26T01:07:37;100458.44;;;11.13;67.52
69624;BME280;56843;52.020;5.670;2023-03-26T01:09:17;100447.41;;;11.14;67.52
69624;BME280;56843;52.020;5.670;2023-03-26T01:10:50;100449.66;;;11.12;67.73
69624;BME280;56843;52.020;5.670;2023-03-26T01:12:23;100452.31;;;11.12;67.49
69624;BME280;56843;52.020;5.670;2023-03-26T01:14:01;100450.78;;;11.11;67.53
69624;BME280;56843;52.020;5.670;2023-03-26T01:15:32;100443.88;;;11.10;67.96
69624;BME280;56843;52.020;5.670;2023-03-26T01:17:05;100446.53;;;11.10;67.85
69624;BME280;56843;52.020;5.670;2023-03-26T01:18:37;100436.19;;;11.08;68.08
69624;BME280;56843;52.020;5.670;2023-03-26T01:20:14;100444.97;;;11.09;67.91
69624;BME280;56843;52.020;5.670;2023-03-26T01:21:46;100445.31;;;11.07;67.85
69624;BME280;56843;52.020;5.670;2023-03-26T01:23:21;100428.94;;;11.09;68.12
69624;BME280;56843;52.020;5.670;2023-03-26T01:24:53;100429.28;;;11.07;68.33
69624;BME280;56843;52.020;5.670;2023-03-26T01:26:56;100425.16;;;11.10;68.17
69624;BME280;56843;52.020;5.670;2023-03-26T01:28:31;100421.59;;;11.06;68.16
69624;BME280;56843;52.020;5.670;2023-03-26T01:35:59;100407.56;;;11.09;68.20
69624;BME280;56843;52.020;5.670;2023-03-26T01:38:22;100406.78;;;11.08;68.12
69624;BME280;56843;52.020;5.670;2023-03-26T01:39:46;100398.34;;;11.06;68.33
69624;BME280;56843;52.020;5.670;2023-03-26T01:41:37;100402.91;;;11.06;68.10
69624;BME280;56843;52.020;5.670;2023-03-26T01:44:59;100392.19;;;11.06;68.29
69624;BME280;56843;52.020;5.670;2023-03-26T01:46:33;100392.19;;;11.06;68.10
69624;BME280;56843;52.020;5.670;2023-03-26T01:48:05;100391.88;;;11.07;68.46
69624;BME280;56843;52.020;5.670;2023-03-26T01:49:36;100389.19;;;11.07;68.21
69624;BME280;56843;52.020;5.670;2023-03-26T01:51:08;100388.41;;;11.07;68.38
69624;BME280;56843;52.020;5.670;2023-03-26T01:52:38;100388.75;;;11.05;68.35
69624;BME280;56843;52.020;5.670;2023-03-26T01:54:17;100387.66;;;11.06;68.14
69624;BME280;56843;52.020;5.670;2023-03-26T02:01:26;100379.84;;;11.01;68.59
69624;BME280;56843;52.020;5.670;2023-03-26T02:06:26;100362.38;;;11.04;68.71
69624;BME280;56843;52.020;5.670;2023-03-26T02:09:58;100358.13;;;11.03;68.67
69624;BME280;56843;52.020;5.670;2023-03-26T02:11:30;100367.72;;;11.04;68.35
69624;BME280;56843;52.020;5.670;2023-03-26T02:13:00;100363.81;;;11.01;68.49
69624;BME280;56843;52.020;5.670;2023-03-26T02:14:32;100365.03;;;11.04;68.72
69624;BME280;56843;52.020;5.670;2023-03-26T02:16:06;100352.91;;;11.06;68.40
69624;BME280;56843;52.020;5.670;2023-03-26T02:17:37;100352.13;;;11.06;68.74
69624;BME280;56843;52.020;5.670;2023-03-26T02:19:12;100357.13;;;11.07;68.71
69624;BME280;56843;52.020;5.670;2023-03-26T02:20:45;100349.09;;;11.07;68.51
69624;BME280;56843;52.020;5.670;2023-03-26T02:22:16;100347.22;;;11.08;68.60
69624;BME280;56843;52.020;5.670;2023-03-26T02:23:49;100354.44;;;11.07;68.75
69624;BME280;56843;52.020;5.670;2023-03-26T02:25:27;100350.22;;;11.06;68.54
69624;BME280;56843;52.020;5.670;2023-03-26T02:26:57;100343.75;;;11.07;68.76
69624;BME280;56843;52.020;5.670;2023-03-26T02:28:31;100342.97;;;11.07;68.82
69624;BME280;56843;52.020;5.670;2023-03-26T02:30:04;100345.66;;;11.07;68.78
69624;BME280;56843;52.020;5.670;2023-03-26T02:31:35;100348.00;;;11.08;68.80
69624;BME280;56843;52.020;5.670;2023-03-26T02:33:06;100345.34;;;11.08;68.80
69624;BME280;56843;52.020;5.670;2023-03-26T02:34:42;100342.66;;;11.08;68.69
69624;BME280;56843;52.020;5.670;2023-03-26T02:36:14;100337.19;;;11.05;68.74
69624;BME280;56843;52.020;5.670;2023-03-26T02:37:48;100325.84;;;11.08;68.66
69624;BME280;56843;52.020;5.670;2023-03-26T02:39:23;100328.50;;;11.08;68.75
69624;BME280;56843;52.020;5.670;2023-03-26T02:41:04;100334.97;;;11.07;68.78
69624;BME280;56843;52.020;5.670;2023-03-26T02:42:50;100330.75;;;11.06;68.88
69624;BME280;56843;52.020;5.670;2023-03-26T02:44:21;100321.94;;;11.05;68.73
69624;BME280;56843;52.020;5.670;2023-03-26T02:46:03;100331.06;;;11.04;68.72
69624;BME280;56843;52.020;5.670;2023-03-26T02:47:51;100328.72;;;11.03;68.83
69624;BME280;56843;52.020;5.670;2023-03-26T02:49:40;100331.41;;;11.03;68.68
69624;BME280;56843;52.020;5.670;2023-03-26T02:51:10;100330.31;;;11.04;68.61
69624;BME280;56843;52.020;5.670;2023-03-26T02:52:47;100321.50;;;11.03;68.85
69624;BME280;56843;52.020;5.670;2023-03-26T02:54:19;100323.03;;;11.04;68.83
69624;BME280;56843;52.020;5.670;2023-03-26T02:56:12;100324.53;;;11.02;68.97
69624;BME280;56843;52.020;5.670;2023-03-26T02:57:52;100328.72;;;11.03;68.86
69624;BME280;56843;52.020;5.670;2023-03-26T02:59:26;100322.28;;;11.04;69.19
69624;BME280;56843;52.020;5.670;2023-03-26T03:01:23;100319.50;;;11.00;68.87
69624;BME280;56843;52.020;5.670;2023-03-26T03:02:56;100323.75;;;11.01;68.71
69624;BME280;56843;52.020;5.670;2023-03-26T03:04:36;100315.28;;;10.99;69.04
69624;BME280;56843;52.020;5.670;2023-03-26T03:06:06;100326.06;;;11.03;69.06
69624;BME280;56843;52.020;5.670;2023-03-26T03:07:59;100322.59;;;11.02;68.86
69624;BME280;56843;52.020;5.670;2023-03-26T03:09:32;100323.75;;;11.01;69.06
69624;BME280;56843;52.020;5.670;2023-03-26T03:11:39;100317.94;;;10.99;68.83
69624;BME280;56843;52.020;5.670;2023-03-26T03:13:11;100319.50;;;11.00;68.93
69624;BME280;56843;52.020;5.670;2023-03-26T03:14:41;100311.91;;;11.02;69.14
69624;BME280;56843;52.020;5.670;2023-03-26T03:16:12;100311.91;;;11.02;69.02
69624;BME280;56843;52.020;5.670;2023-03-26T03:17:43;100309.69;;;11.04;68.82
69624;BME280;56843;52.020;5.670;2023-03-26T03:19:13;100310.81;;;11.03;68.94
69624;BME280;56843;52.020;5.670;2023-03-26T03:20:45;100307.78;;;11.05;68.85
69624;BME280;56843;52.020;5.670;2023-03-26T03:22:16;100309.38;;;11.06;69.04
69624;BME280;56843;52.020;5.670;2023-03-26T03:23:49;100299.47;;;11.06;69.08
69624;BME280;56843;52.020;5.670;2023-03-26T03:25:20;100299.47;;;11.06;69.01
69624;BME280;56843;52.020;5.670;2023-03-26T03:26:51;100297.53;;;11.07;69.05
69624;BME280;56843;52.020;5.670;2023-03-26T03:28:55;100291.75;;;11.05;69.11
69624;BME280;56843;52.020;5.670;2023-03-26T03:30:27;100290.66;;;11.06;68.80
69624;BME280;56843;52.020;5.670;2023-03-26T03:32:21;100291.75;;;11.05;69.20
69624;BME280;56843;52.020;5.670;2023-03-26T03:33:53;100291.75;;;11.05;68.82
69624;BME280;56843;52.020;5.670;2023-03-26T03:35:25;100293.34;;;11.06;69.21
69624;BME280;56843;52.020;5.670;2023-03-26T03:37:00;100290.66;;;11.06;68.84
69624;BME280;56843;52.020;5.670;2023-03-26T03:38:40;100292.56;;;11.05;68.88
69624;BME280;56843;52.020;5.670;2023-03-26T03:40:12;100293.00;;;11.07;69.08
69624;BME280;56843;52.020;5.670;2023-03-26T03:41:43;100291.09;;;11.08;69.15
69624;BME280;56843;52.020;5.670;2023-03-26T03:43:17;100297.22;;;11.08;68.41
69624;BME280;56843;52.020;5.670;2023-03-26T03:45:01;100294.88;;;11.07;68.98
69624;BME280;56843;52.020;5.670;2023-03-26T03:47:03;100294.78;;;11.03;68.93
69624;BME280;56843;52.020;5.670;2023-03-26T03:48:34;100292.56;;;11.05;69.16
69624;BME280;56843;52.020;5.670;2023-03-26T03:50:09;100296.44;;;11.08;68.62
69624;BME280;56843;52.020;5.670;2023-03-26T03:51:43;100293.78;;;11.08;69.15
69624;BME280;56843;52.020;5.670;2023-03-26T03:53:25;100283.09;;;11.08;68.86
69624;BME280;56843;52.020;5.670;2023-03-26T03:54:57;100291.88;;;11.08;69.07
69624;BME280;56843;52.020;5.670;2023-03-26T03:56:46;100288.44;;;11.08;68.88
69624;BME280;56843;52.020;5.670;2023-03-26T03:58:35;100286.09;;;11.06;68.82
69624;BME280;56843;52.020;5.670;2023-03-26T04:00:15;100287.63;;;11.07;68.66
69624;BME280;56843;52.020;5.670;2023-03-26T04:01:46;100281.19;;;11.08;69.31
69624;BME280;56843;52.020;5.670;2023-03-26T04:03:38;100274.63;;;11.06;69.10
69624;BME280;56843;52.020;5.670;2023-03-26T04:05:15;100275.41;;;11.06;68.85
69624;BME280;56843;52.020;5.670;2023-03-26T04:06:50;100266.63;;;11.06;68.93
69624;BME280;56843;52.020;5.670;2023-03-26T04:08:22;100268.94;;;11.07;68.69
69624;BME280;56843;52.020;5.670;2023-03-26T04:09:56;100268.16;;;11.07;68.86
69624;BME280;56843;52.020;5.670;2023-03-26T04:11:32;100266.25;;;11.07;68.95
69624;BME280;56843;52.020;5.670;2023-03-26T04:13:16;100255.94;;;11.06;68.86
69624;BME280;56843;52.020;5.670;2023-03-26T04:15:09;100256.25;;;11.04;69.07
69624;BME280;56843;52.020;5.670;2023-03-26T04:16:40;100254.78;;;11.07;68.69
69624;BME280;56843;52.020;5.670;2023-03-26T04:18:11;100250.59;;;11.06;68.90
69624;BME280;56843;52.020;5.670;2023-03-26T04:19:44;100245.56;;;11.04;68.62
69624;BME280;56843;52.020;5.670;2023-03-26T04:21:16;100246.03;;;11.06;68.61
69624;BME280;56843;52.020;5.670;2023-03-26T04:22:48;100248.69;;;11.06;69.28
69624;BME280;56843;52.020;5.670;2023-03-26T04:24:20;100258.25;;;11.07;68.78
69624;BME280;56843;52.020;5.670;2023-03-26T04:26:21;100242.88;;;11.04;69.04
69624;BME280;56843;52.020;5.670;2023-03-26T04:28:07;100244.00;;;11.03;69.07
69624;BME280;56843;52.020;5.670;2023-03-26T04:30:06;100239.78;;;11.02;68.75
69624;BME280;56843;52.020;5.670;2023-03-26T04:31:39;100235.22;;;11.03;68.78
69624;BME280;56843;52.020;5.670;2023-03-26T04:33:12;100241.34;;;11.03;69.02
69624;BME280;56843;52.020;5.670;2023-03-26T04:34:45;100236.78;;;11.04;68.93
69624;BME280;56843;52.020;5.670;2023-03-26T04:36:17;100236.78;;;11.04;69.02
69624;BME280;56843;52.020;5.670;2023-03-26T04:37:51;100229.88;;;11.03;69.14
69624;BME280;56843;52.020;5.670;2023-03-26T04:39:28;100227.97;;;11.03;69.25
69624;BME280;56843;52.020;5.670;2023-03-26T04:41:31;100217.88;;;10.97;68.93
69624;BME280;56843;52.020;5.670;2023-03-26T04:43:11;100225.97;;;11.00;69.12
69624;BME280;56843;52.020;5.670;2023-03-26T04:45:00;100227.44;;;10.98;69.19
69624;BME280;56843;52.020;5.670;2023-03-26T04:46:33;100220.19;;;10.98;69.15
69624;BME280;56843;52.020;5.670;2023-03-26T04:48:14;100222.09;;;10.98;69.01
69624;BME280;56843;52.020;5.670;2023-03-26T04:49:45;100215.63;;;10.99;68.96
69624;BME280;56843;52.020;5.670;2023-03-26T04:51:21;100217.22;;;11.00;69.24
69624;BME280;56843;52.020;5.670;2023-03-26T04:52:55;100213.75;;;10.99;68.98
69624;BME280;56843;52.020;5.670;2023-03-26T04:54:58;100201.84;;;10.97;69.08
69624;BME280;56843;52.020;5.670;2023-03-26T04:56:48;100196.16;;;10.98;68.98
69624;BME280;56843;52.020;5.670;2023-03-26T04:58:44;100195.63;;;10.93;69.15
69624;BME280;56843;52.020;5.670;2023-03-26T05:00:18;100197.94;;;10.94;69.33
69624;BME280;56843;52.020;5.670;2023-03-26T05:01:56;100191.16;;;10.97;69.19
69624;BME280;56843;52.020;5.670;2023-03-26T05:03:30;100189.28;;;10.97;68.89
69624;BME280;56843;52.020;5.670;2023-03-26T05:05:05;100183.13;;;10.97;69.16
69624;BME280;56843;52.020;5.670;2023-03-26T05:06:36;100181.25;;;10.97;69.25
69624;BME280;56843;52.020;5.670;2023-03-26T05:08:14;100189.28;;;10.97;69.02
69624;BME280;56843;52.020;5.670;2023-03-26T05:09:45;100183.94;;;10.97;68.94
69624;BME280;56843;52.020;5.670;2023-03-26T05:11:19;100179.69;;;10.96;69.29
69624;BME280;56843;52.020;5.670;2023-03-26T05:12:50;100181.56;;;10.96;69.27
69624;BME280;56843;52.020;5.670;2023-03-26T05:14:25;100173.91;;;10.94;69.24
69624;BME280;56843;52.020;5.670;2023-03-26T05:15:56;100184.25;;;10.96;69.21
69624;BME280;56843;52.020;5.670;2023-03-26T05:17:35;100184.59;;;10.94;69.31
69624;BME280;56843;52.020;5.670;2023-03-26T05:19:13;100174.25;;;10.93;69.41
69624;BME280;56843;52.020;5.670;2023-03-26T05:20:44;100176.13;;;10.92;69.41
69624;BME280;56843;52.020;5.670;2023-03-26T05:22:16;100176.94;;;10.93;69.47
69624;BME280;56843;52.020;5.670;2023-03-26T05:24:07;100172.69;;;10.92;69.39
69624;BME280;56843;52.020;5.670;2023-03-26T05:25:37;100170.81;;;10.92;69.38
69624;BME280;56843;52.020;5.670;2023-03-26T05:27:15;100168.13;;;10.92;69.22
69624;BME280;56843;52.020;5.670;2023-03-26T05:28:46;100162.78;;;10.92;69.33
69624;BME280;56843;52.020;5.670;2023-03-26T05:30:41;100168.47;;;10.91;69.63
69624;BME280;56843;52.020;5.670;2023-03-26T05:32:12;100161.22;;;10.91;69.46
69624;BME280;56843;52.020;5.670;2023-03-26T05:33:43;100162.00;;;10.92;69.21
69624;BME280;56843;52.020;5.670;2023-03-26T05:35:16;100161.22;;;10.91;69.41
69624;BME280;56843;52.020;5.670;2023-03-26T05:36:47;100157.78;;;10.91;69.16
69624;BME280;56843;52.020;5.670;2023-03-26T05:38:40;100153.13;;;10.88;69.48
69624;BME280;56843;52.020;5.670;2023-03-26T05:40:14;100154.69;;;10.89;69.25
69624;BME280;56843;52.020;5.670;2023-03-26T05:41:51;100142.09;;;10.89;69.58
69624;BME280;56843;52.020;5.670;2023-03-26T05:43:22;100145.53;;;10.90;69.18
69624;BME280;56843;52.020;5.670;2023-03-26T05:45:14;100140.53;;;10.88;69.45
69624;BME280;56843;52.020;5.670;2023-03-26T05:46:44;100141.31;;;10.89;69.22
69624;BME280;56843;52.020;5.670;2023-03-26T05:48:23;100137.53;;;10.90;69.27
69624;BME280;56843;52.020;5.670;2023-03-26T05:49:54;100135.63;;;10.90;69.25
69624;BME280;56843;52.020;5.670;2023-03-26T05:51:24;100131.41;;;10.89;69.21
69624;BME280;56843;52.020;5.670;2023-03-26T05:53:14;100131.75;;;10.88;69.56
69624;BME280;56843;52.020;5.670;2023-03-26T05:54:51;100127.19;;;10.88;69.55
69624;BME280;56843;52.020;5.670;2023-03-26T05:56:39;100131.19;;;10.82;69.25
69624;BME280;56843;52.020;5.670;2023-03-26T05:58:30;100130.75;;;10.80;69.51
69624;BME280;56843;52.020;5.670;2023-03-26T06:00:20;100123.78;;;10.76;69.46
69624;BME280;56843;52.020;5.670;2023-03-26T06:01:54;100114.66;;;10.77;69.34
69624;BME280;56843;52.020;5.670;2023-03-26T06:03:38;100120.66;;;10.74;69.08
69624;BME280;56843;52.020;5.670;2023-03-26T06:05:19;100117.91;;;10.70;69.19
69624;BME280;56843;52.020;5.670;2023-03-26T06:07:07;100117.91;;;10.70;69.01
69624;BME280;56843;52.020;5.670;2023-03-26T06:08:45;100108.75;;;10.71;69.35
69624;BME280;56843;52.020;5.670;2023-03-26T06:10:19;100106.88;;;10.72;69.00
69624;BME280;56843;52.020;5.670;2023-03-26T06:11:50;100108.88;;;10.75;69.38
69624;BME280;56843;52.020;5.670;2023-03-26T06:13:21;100106.19;;;10.75;68.95
69624;BME280;56843;52.020;5.670;2023-03-26T06:14:53;100105.06;;;10.76;69.03
69624;BME280;56843;52.020;5.670;2023-03-26T06:16:33;100098.97;;;10.75;69.21
69624;BME280;56843;52.020;5.670;2023-03-26T06:18:30;100100.44;;;10.73;69.10
69624;BME280;56843;52.020;5.670;2023-03-26T06:20:01;100102.75;;;10.74;69.21
69624;BME280;56843;52.020;5.670;2023-03-26T06:21:41;100098.97;;;10.75;69.04
69624;BME280;56843;52.020;5.670;2023-03-26T06:23:18;100095.53;;;10.75;69.42
69624;BME280;56843;52.020;5.670;2023-03-26T06:25:15;100092.41;;;10.73;69.30
69624;BME280;56843;52.020;5.670;2023-03-26T06:27:09;100096.19;;;10.72;69.06
69624;BME280;56843;52.020;5.670;2023-03-26T06:29:05;100092.41;;;10.73;69.33
69624;BME280;56843;52.020;5.670;2023-03-26T06:31:02;100088.97;;;10.72;69.41
69624;BME280;56843;52.020;5.670;2023-03-26T06:32:39;100087.41;;;10.71;68.70
69624;BME280;56843;52.020;5.670;2023-03-26T06:34:14;100087.84;;;10.73;69.32
69624;BME280;56843;52.020;5.670;2023-03-26T06:35:45;100083.28;;;10.74;69.28
69624;BME280;56843;52.020;5.670;2023-03-26T06:37:17;100090.19;;;10.75;69.04
69624;BME280;56843;52.020;5.670;2023-03-26T06:38:50;100082.94;;;10.75;69.14
69624;BME280;56843;52.020;5.670;2023-03-26T06:40:20;100081.03;;;10.76;69.01
69624;BME280;56843;52.020;5.670;2023-03-26T06:41:57;100082.94;;;10.75;69.25
69624;BME280;56843;52.020;5.670;2023-03-26T06:43:50;100081.38;;;10.74;69.10
69624;BME280;56843;52.020;5.670;2023-03-26T06:45:40;100081.38;;;10.74;69.37
69624;BME280;56843;52.020;5.670;2023-03-26T06:47:46;100086.28;;;10.72;69.39
69624;BME280;56843;52.020;5.670;2023-03-26T06:49:43;100084.72;;;10.71;69.44
69624;BME280;56843;52.020;5.670;2023-03-26T06:51:32;100087.84;;;10.73;69.37
69624;BME280;56843;52.020;5.670;2023-03-26T06:53:11;100080.28;;;10.75;68.95
69624;BME280;56843;52.020;5.670;2023-03-26T06:54:58;100085.63;;;10.75;69.03
69624;BME280;56843;52.020;5.670;2023-03-26T06:56:48;100080.28;;;10.75;69.33
69624;BME280;56843;52.020;5.670;2023-03-26T06:58:44;100081.03;;;10.76;69.31
69624;BME280;56843;52.020;5.670;2023-03-26T07:00:33;100082.94;;;10.75;69.00
69624;BME280;56843;52.020;5.670;2023-03-26T07:02:32;100080.28;;;10.75;69.05
69624;BME280;56843;52.020;5.670;2023-03-26T07:04:21;100083.38;;;10.77;69.34
69624;BME280;56843;52.020;5.670;2023-03-26T07:06:10;100087.16;;;10.76;69.08
69624;BME280;56843;52.020;5.670;2023-03-26T07:07:59;100079.94;;;10.77;69.03
69624;BME280;56843;52.020;5.670;2023-03-26T07:10:02;100081.50;;;10.78;69.20
69624;BME280;56843;52.020;5.670;2023-03-26T07:11:51;100081.50;;;10.78;69.24
69624;BME280;56843;52.020;5.670;2023-03-26T07:13:27;100085.34;;;10.80;69.24
69624;BME280;56843;52.020;5.670;2023-03-26T07:15:17;100073.56;;;10.81;69.31
69624;BME280;56843;52.020;5.670;2023-03-26T07:17:06;100075.47;;;10.81;69.04
69624;BME280;56843;52.020;5.670;2023-03-26T07:18:59;100083.13;;;10.82;69.63
69624;BME280;56843;52.020;5.670;2023-03-26T07:20:35;100068.31;;;10.85;69.16
69624;BME280;56843;52.020;5.670;2023-03-26T07:22:14;100076.75;;;10.87;68.99
69624;BME280;56843;52.020;5.670;2023-03-26T07:24:04;100076.75;;;10.87;68.86
69624;BME280;56843;52.020;5.670;2023-03-26T07:26:23;100069.22;;;10.89;68.99
69624;BME280;56843;52.020;5.670;2023-03-26T07:28:39;100066.19;;;10.90;69.18
69624;BME280;56843;52.020;5.670;2023-03-26T07:36:03;100061.03;;;10.97;69.04
69624;BME280;56843;52.020;5.670;2023-03-26T07:40:15;100052.31;;;11.00;68.62
69624;BME280;56843;52.020;5.670;2023-03-26T07:44:59;100048.53;;;11.01;68.71
69624;BME280;56843;52.020;5.670;2023-03-26T07:46:50;100054.97;;;11.00;69.03
69624;BME280;56843;52.020;5.670;2023-03-26T07:48:44;100049.75;;;11.04;68.43
69624;BME280;56843;52.020;5.670;2023-03-26T07:50:41;100047.06;;;11.04;68.68
69624;BME280;56843;52.020;5.670;2023-03-26T07:52:27;100042.94;;;11.06;68.85
69624;BME280;56843;52.020;5.670;2023-03-26T07:54:09;100044.47;;;11.07;68.77
69624;BME280;56843;52.020;5.670;2023-03-26T07:56:15;100043.44;;;11.12;68.80
69624;BME280;56843;52.020;5.670;2023-03-26T07:58:15;100048.38;;;11.10;68.65
69624;BME280;56843;52.020;5.670;2023-03-26T08:00:17;100036.91;;;11.09;68.39
69624;BME280;56843;52.020;5.670;2023-03-26T08:05:45;100044.31;;;11.16;68.54
69624;BME280;56843;52.020;5.670;2023-03-26T08:07:41;100039.41;;;11.18;68.37
69624;BME280;56843;52.020;5.670;2023-03-26T08:09:38;100042.06;;;11.18;68.62
69624;BME280;56843;52.020;5.670;2023-03-26T08:13:22;100040.28;;;11.22;68.31
69624;BME280;56843;52.020;5.670;2023-03-26T08:15:02;100036.81;;;11.22;68.34
69624;BME280;56843;52.020;5.670;2023-03-26T08:17:04;100040.34;;;11.26;68.54
69624;BME280;56843;52.020;5.670;2023-03-26T08:18:45;100043.03;;;11.26;68.44
69624;BME280;56843;52.020;5.670;2023-03-26T08:20:46;100049.91;;;11.27;68.56
69624;BME280;56843;52.020;5.670;2023-03-26T08:22:22;100044.84;;;11.22;68.33
69624;BME280;56843;52.020;5.670;2023-03-26T08:28:00;100045.78;;;11.45;68.38
69624;BME280;56843;52.020;5.670;2023-03-26T08:31:33;100040.81;;;11.59;68.38
69624;BME280;56843;52.020;5.670;2023-03-26T08:34:40;100049.59;;;11.75;67.84
69624;BME280;56843;52.020;5.670;2023-03-26T08:36:11;100050.94;;;11.85;68.00
69624;BME280;56843;52.020;5.670;2023-03-26T08:37:41;100048.78;;;11.90;67.82
69624;BME280;56843;52.020;5.670;2023-03-26T08:39:15;100051.94;;;11.96;67.70
69624;BME280;56843;52.020;5.670;2023-03-26T08:58:27;100043.84;;;12.46;67.51
69624;BME280;56843;52.020;5.670;2023-03-26T09:00:27;100041.91;;;12.46;67.38
69624;BME280;56843;52.020;5.670;2023-03-26T09:03:57;100044.69;;;12.50;67.44
69624;BME280;56843;52.020;5.670;2023-03-26T09:26:45;100041.59;;;12.71;66.60
69624;BME280;56843;52.020;5.670;2023-03-26T09:34:29;100057.69;;;12.71;66.67
69624;BME280;56843;52.020;5.670;2023-03-26T09:37:59;100043.97;;;12.72;66.67
69624;BME280;56843;52.020;5.670;2023-03-26T09:39:46;100048.53;;;12.72;66.89
69624;BME280;56843;52.020;5.670;2023-03-26T09:45:15;100048.94;;;12.74;66.33
69624;BME280;56843;52.020;5.670;2023-03-26T09:56:47;100048.66;;;12.79;66.50
69624;BME280;56843;52.020;5.670;2023-03-26T10:00:38;100049.94;;;12.85;66.23
69624;BME280;56843;52.020;5.670;2023-03-26T10:19:47;100051.09;;;13.06;65.35
69624;BME280;56843;52.020;5.670;2023-03-26T10:21:28;100059.91;;;13.07;65.42
69624;BME280;56843;52.020;5.670;2023-03-26T10:23:03;100054.56;;;13.07;65.81
69624;BME280;56843;52.020;5.670;2023-03-26T10:29:18;100055.34;;;13.07;65.68
69624;BME280;56843;52.020;5.670;2023-03-26T10:33:20;100063.38;;;13.07;65.98
69624;BME280;56843;52.020;5.670;2023-03-26T10:37:07;100061.41;;;13.04;66.16
69624;BME280;56843;52.020;5.670;2023-03-26T10:40:29;100073.69;;;13.05;66.22
69624;BME280;56843;52.020;5.670;2023-03-26T10:49:58;100071.00;;;13.05;66.21
69624;BME280;56843;52.020;5.670;2023-03-26T10:51:46;100072.91;;;13.05;65.81
69624;BME280;56843;52.020;5.670;2023-03-26T10:55:21;100076.00;;;13.07;66.15
69624;BME280;56843;52.020;5.670;2023-03-26T10:56:55;100079.88;;;13.09;66.11
69624;BME280;56843;52.020;5.670;2023-03-26T10:58:27;100078.41;;;13.12;66.16
69624;BME280;56843;52.020;5.670;2023-03-26T11:03:52;100075.34;;;13.13;65.79
69624;BME280;56843;52.020;5.670;2023-03-26T11:05:45;100078.81;;;13.14;65.94
69624;BME280;56843;52.020;5.670;2023-03-26T11:07:31;100080.72;;;13.13;65.62
69624;BME280;56843;52.020;5.670;2023-03-26T11:09:36;100083.81;;;13.15;65.57
69624;BME280;56843;52.020;5.670;2023-03-26T11:17:00;100083.03;;;13.15;65.44